sensor_id;sensor_type;location;lat;lon;timestamp;temperature;humidity
44707;DHT22;30433;45.596;8.408;2023-06-04T00:02:10;18.20;99.90
44707;DHT22;30433;45.596;8.408;2023-06-04T00:08:12;18.20;99.90
44707;DHT22;30433;45.596;8.408;2023-06-04T00:14:16;18.20;99.90
44707;DHT22;30433;45.596;8.408;2023-06-04T00:20:18;18.00;99.90
44707;DHT22;30433;45.596;8.408;2023-06-04T00:26:21;18.10;99.90
44707;DHT22;30433;45.596;8.408;2023-06-04T00:32:24;18.10;99.90
44707;DHT22;30433;45.596;8.408;2023-06-04T00:38:27;17.60;99.90
44707;DHT22;30433;45.596;8.408;2023-06-04T00:44:29;17.40;99.90
44707;DHT22;30433;45.596;8.408;2023-06-04T00:50:33;17.40;99.90
44707;DHT22;30433;45.596;8.408;2023-06-04T00:56:36;17.50;99.90
44707;DHT22;30433;45.596;8.408;2023-06-04T01:02:40;17.80;99.90
44707;DHT22;30433;45.596;8.408;2023-06-04T01:08:45;17.90;99.90
44707;DHT22;30433;45.596;8.408;2023-06-04T01:14:48;17.80;99.90
44707;DHT22;30433;45.596;8.408;2023-06-04T01:20:51;17.60;99.90
44707;DHT22;30433;45.596;8.408;2023-06-04T01:26:55;17.40;99.90
44707;DHT22;30433;45.596;8.408;2023-06-04T01:32:59;17.10;99.90
44707;DHT22;30433;45.596;8.408;2023-06-04T01:39:01;17.00;99.90
44707;DHT22;30433;45.596;8.408;2023-06-04T01:45:09;17.10;99.90
44707;DHT22;30433;45.596;8.408;2023-06-04T01:51:11;17.10;99.90
44707;DHT22;30433;45.596;8.408;2023-06-04T01:57:13;16.30;99.90
44707;DHT22;30433;45.596;8.408;2023-06-04T02:03:17;16.10;99.90
44707;DHT22;30433;45.596;8.408;2023-06-04T02:09:19;16.00;99.90
44707;DHT22;30433;45.596;8.408;2023-06-04T02:15:23;16.00;99.90
44707;DHT22;30433;45.596;8.408;2023-06-04T02:21:26;15.90;99.90
44707;DHT22;30433;45.596;8.408;2023-06-04T02:27:29;16.20;99.90
44707;DHT22;30433;45.596;8.408;2023-06-04T02:33:31;16.10;99.90
44707;DHT22;30433;45.596;8.408;2023-06-04T02:39:35;16.10;99.90
44707;DHT22;30433;45.596;8.408;2023-06-04T02:45:37;16.10;99.90
44707;DHT22;30433;45.596;8.408;2023-06-04T02:51:40;15.80;99.90
44707;DHT22;30433;45.596;8.408;2023-06-04T02:57:43;16.20;99.90
44707;DHT22;30433;45.596;8.408;2023-06-04T03:03:46;16.00;99.90
44707;DHT22;30433;45.596;8.408;2023-06-04T03:09:49;16.20;99.90
44707;DHT22;30433;45.596;8.408;2023-06-04T03:15:52;16.30;99.90
44707;DHT22;30433;45.596;8.408;2023-06-04T03:21:56;16.20;99.90
44707;DHT22;30433;45.596;8.408;2023-06-04T03:28:01;15.90;99.90
44707;DHT22;30433;45.596;8.408;2023-06-04T03:34:05;15.90;99.90
44707;DHT22;30433;45.596;8.408;2023-06-04T03:40:08;16.00;99.90
44707;DHT22;30433;45.596;8.408;2023-06-04T03:46:10;15.80;99.90
44707;DHT22;30433;45.596;8.408;2023-06-04T03:52:14;15.70;99.90
44707;DHT22;30433;45.596;8.408;2023-06-04T03:58:16;15.70;99.90
44707;DHT22;30433;45.596;8.408;2023-06-04T04:04:18;15.80;99.90
44707;DHT22;30433;45.596;8.408;2023-06-04T04:10:22;15.70;99.90
44707;DHT22;30433;45.596;8.408;2023-06-04T04:16:24;15.60;99.90
44707;DHT22;30433;45.596;8.408;2023-06-04T04:22:28;15.80;99.90
44707;DHT22;30433;45.596;8.408;2023-06-04T04:28:33;15.80;99.90
44707;DHT22;30433;45.596;8.408;2023-06-04T04:34:35;15.60;99.90
44707;DHT22;30433;45.596;8.408;2023-06-04T04:40:38;15.70;99.90
44707;DHT22;30433;45.596;8.408;2023-06-04T04:46:42;15.60;99.90
44707;DHT22;30433;45.596;8.408;2023-06-04T04:52:44;15.70;99.90
44707;DHT22;30433;45.596;8.408;2023-06-04T04:58:46;16.00;99.90
44707;DHT22;30433;45.596;8.408;2023-06-04T05:04:50;15.90;99.90
44707;DHT22;30433;45.596;8.408;2023-06-04T05:10:52;15.90;99.90
44707;DHT22;30433;45.596;8.408;2023-06-04T05:16:54;15.90;99.90
44707;DHT22;30433;45.596;8.408;2023-06-04T05:22:58;16.00;99.90
44707;DHT22;30433;45.596;8.408;2023-06-04T05:29:03;16.00;99.90
44707;DHT22;30433;45.596;8.408;2023-06-04T05:35:05;16.20;99.90
44707;DHT22;30433;45.596;8.408;2023-06-04T05:41:10;16.20;99.90
44707;DHT22;30433;45.596;8.408;2023-06-04T05:47:12;16.20;99.90
44707;DHT22;30433;45.596;8.408;2023-06-04T05:53:15;16.20;99.90
44707;DHT22;30433;45.596;8.408;2023-06-04T05:59:18;16.30;99.90
44707;DHT22;30433;45.596;8.408;2023-06-04T06:05:21;16.30;99.90
44707;DHT22;30433;45.596;8.408;2023-06-04T06:11:23;16.30;99.90
44707;DHT22;30433;45.596;8.408;2023-06-04T06:17:29;16.50;99.90
44707;DHT22;30433;45.596;8.408;2023-06-04T06:23:31;16.70;99.90
44707;DHT22;30433;45.596;8.408;2023-06-04T06:29:33;16.60;99.90
44707;DHT22;30433;45.596;8.408;2023-06-04T06:35:37;16.60;99.90
44707;DHT22;30433;45.596;8.408;2023-06-04T06:41:39;16.80;99.90
44707;DHT22;30433;45.596;8.408;2023-06-04T06:47:41;16.80;99.90
44707;DHT22;30433;45.596;8.408;2023-06-04T06:53:45;16.90;99.90
44707;DHT22;30433;45.596;8.408;2023-06-04T06:59:47;17.10;99.90
44707;DHT22;30433;45.596;8.408;2023-06-04T07:05:53;17.00;99.90
44707;DHT22;30433;45.596;8.408;2023-06-04T07:11:57;16.90;99.90
44707;DHT22;30433;45.596;8.408;2023-06-04T07:17:59;17.20;99.90
44707;DHT22;30433;45.596;8.408;2023-06-04T07:24:01;17.10;99.90
44707;DHT22;30433;45.596;8.408;2023-06-04T07:30:06;17.20;99.90
44707;DHT22;30433;45.596;8.408;2023-06-04T07:36:10;17.20;99.90
44707;DHT22;30433;45.596;8.408;2023-06-04T07:42:13;17.40;99.90
44707;DHT22;30433;45.596;8.408;2023-06-04T07:48:16;17.30;99.90
44707;DHT22;30433;45.596;8.408;2023-06-04T07:54:18;17.40;99.90
44707;DHT22;30433;45.596;8.408;2023-06-04T08:00:21;17.40;99.90
44707;DHT22;30433;45.596;8.408;2023-06-04T08:06:25;17.40;99.90
44707;DHT22;30433;45.596;8.408;2023-06-04T08:12:27;17.40;99.90
44707;DHT22;30433;45.596;8.408;2023-06-04T08:18:29;17.50;99.90
44707;DHT22;30433;45.596;8.408;2023-06-04T08:24:33;17.50;99.90
44707;DHT22;30433;45.596;8.408;2023-06-04T08:30:35;17.50;99.90
44707;DHT22;30433;45.596;8.408;2023-06-04T08:36:38;17.50;99.90
44707;DHT22;30433;45.596;8.408;2023-06-04T08:42:46;17.70;99.90
44707;DHT22;30433;45.596;8.408;2023-06-04T08:48:49;17.60;99.90
44707;DHT22;30433;45.596;8.408;2023-06-04T08:54:53;17.60;99.90
44707;DHT22;30433;45.596;8.408;2023-06-04T09:00:59;17.70;99.90
44707;DHT22;30433;45.596;8.408;2023-06-04T09:07:03;17.70;99.90
44707;DHT22;30433;45.596;8.408;2023-06-04T09:13:07;17.80;99.90
44707;DHT22;30433;45.596;8.408;2023-06-04T09:19:11;18.00;99.90
44707;DHT22;30433;45.596;8.408;2023-06-04T09:25:20;17.90;99.90
44707;DHT22;30433;45.596;8.408;2023-06-04T09:31:23;18.10;99.90
44707;DHT22;30433;45.596;8.408;2023-06-04T09:37:28;18.10;99.90
44707;DHT22;30433;45.596;8.408;2023-06-04T09:43:31;18.50;99.90
44707;DHT22;30433;45.596;8.408;2023-06-04T09:49:40;18.40;99.90
44707;DHT22;30433;45.596;8.408;2023-06-04T09:55:44;18.70;99.90
44707;DHT22;30433;45.596;8.408;2023-06-04T10:01:47;18.60;99.90
44707;DHT22;30433;45.596;8.408;2023-06-04T10:07:51;18.80;99.90
44707;DHT22;30433;45.596;8.408;2023-06-04T10:14:10;18.80;99.90
44707;DHT22;30433;45.596;8.408;2023-06-04T10:20:13;18.70;99.90
44707;DHT22;30433;45.596;8.408;2023-06-04T10:26:15;18.70;99.90
44707;DHT22;30433;45.596;8.408;2023-06-04T10:32:19;18.70;99.90
44707;DHT22;30433;45.596;8.408;2023-06-04T10:38:21;18.70;99.90
44707;DHT22;30433;45.596;8.408;2023-06-04T10:44:24;18.80;99.90
44707;DHT22;30433;45.596;8.408;2023-06-04T10:50:28;18.80;99.90
44707;DHT22;30433;45.596;8.408;2023-06-04T10:56:31;18.90;99.90
44707;DHT22;30433;45.596;8.408;2023-06-04T11:02:35;19.00;99.90
44707;DHT22;30433;45.596;8.408;2023-06-04T11:08:41;19.20;99.90
44707;DHT22;30433;45.596;8.408;2023-06-04T11:14:53;19.20;99.90
44707;DHT22;30433;45.596;8.408;2023-06-04T11:20:58;19.50;99.90
44707;DHT22;30433;45.596;8.408;2023-06-04T11:27:02;19.70;99.90
44707;DHT22;30433;45.596;8.408;2023-06-04T11:33:05;19.80;99.90
44707;DHT22;30433;45.596;8.408;2023-06-04T11:39:07;19.60;99.90
44707;DHT22;30433;45.596;8.408;2023-06-04T11:45:13;19.60;99.90
44707;DHT22;30433;45.596;8.408;2023-06-04T11:51:16;19.60;99.90
44707;DHT22;30433;45.596;8.408;2023-06-04T11:57:18;19.70;99.90
44707;DHT22;30433;45.596;8.408;2023-06-04T12:03:31;19.90;99.90
44707;DHT22;30433;45.596;8.408;2023-06-04T12:09:33;19.60;99.90
44707;DHT22;30433;45.596;8.408;2023-06-04T12:15:37;19.70;99.90
44707;DHT22;30433;45.596;8.408;2023-06-04T12:21:40;19.70;99.90
44707;DHT22;30433;45.596;8.408;2023-06-04T12:27:47;19.70;99.90
44707;DHT22;30433;45.596;8.408;2023-06-04T12:33:50;19.90;99.90
44707;DHT22;30433;45.596;8.408;2023-06-04T12:39:53;20.20;99.90
44707;DHT22;30433;45.596;8.408;2023-06-04T12:45:58;19.80;99.90
44707;DHT22;30433;45.596;8.408;2023-06-04T12:52:00;20.20;99.90
44707;DHT22;30433;45.596;8.408;2023-06-04T12:58:04;20.20;99.90
44707;DHT22;30433;45.596;8.408;2023-06-04T13:04:06;20.40;99.90
44707;DHT22;30433;45.596;8.408;2023-06-04T13:10:08;20.50;99.90
44707;DHT22;30433;45.596;8.408;2023-06-04T13:16:13;20.50;99.90
44707;DHT22;30433;45.596;8.408;2023-06-04T13:22:16;20.90;99.90
44707;DHT22;30433;45.596;8.408;2023-06-04T13:28:18;21.10;99.90
44707;DHT22;30433;45.596;8.408;2023-06-04T13:34:22;21.00;99.90
44707;DHT22;30433;45.596;8.408;2023-06-04T13:40:24;21.00;99.90
44707;DHT22;30433;45.596;8.408;2023-06-04T13:46:29;20.90;99.90
44707;DHT22;30433;45.596;8.408;2023-06-04T13:52:33;21.40;99.90
44707;DHT22;30433;45.596;8.408;2023-06-04T13:58:35;21.40;99.90
44707;DHT22;30433;45.596;8.408;2023-06-04T14:04:37;21.50;99.90
44707;DHT22;30433;45.596;8.408;2023-06-04T14:10:41;21.50;99.90
44707;DHT22;30433;45.596;8.408;2023-06-04T14:16:44;21.30;99.90
44707;DHT22;30433;45.596;8.408;2023-06-04T14:22:46;21.70;99.90
44707;DHT22;30433;45.596;8.408;2023-06-04T14:28:49;21.40;99.90
44707;DHT22;30433;45.596;8.408;2023-06-04T14:34:52;21.80;99.90
44707;DHT22;30433;45.596;8.408;2023-06-04T14:40:54;21.80;99.90
44707;DHT22;30433;45.596;8.408;2023-06-04T14:46:58;21.80;99.90
44707;DHT22;30433;45.596;8.408;2023-06-04T14:53:01;22.10;99.90
44707;DHT22;30433;45.596;8.408;2023-06-04T14:59:03;22.00;99.90
44707;DHT22;30433;45.596;8.408;2023-06-04T15:05:12;21.90;99.90
44707;DHT22;30433;45.596;8.408;2023-06-04T15:11:17;22.20;99.90
44707;DHT22;30433;45.596;8.408;2023-06-04T15:17:20;22.10;99.90
44707;DHT22;30433;45.596;8.408;2023-06-04T15:23:23;21.90;99.90
44707;DHT22;30433;45.596;8.408;2023-06-04T15:29:25;22.20;99.90
44707;DHT22;30433;45.596;8.408;2023-06-04T15:35:28;22.30;99.90
44707;DHT22;30433;45.596;8.408;2023-06-04T15:41:31;22.10;99.90
44707;DHT22;30433;45.596;8.408;2023-06-04T15:47:34;22.30;99.90
44707;DHT22;30433;45.596;8.408;2023-06-04T15:53:36;22.10;99.90
44707;DHT22;30433;45.596;8.408;2023-06-04T15:59:40;22.10;99.90
44707;DHT22;30433;45.596;8.408;2023-06-04T16:05:42;22.10;99.90
44707;DHT22;30433;45.596;8.408;2023-06-04T16:11:45;21.90;99.90
44707;DHT22;30433;45.596;8.408;2023-06-04T16:17:48;22.00;99.90
44707;DHT22;30433;45.596;8.408;2023-06-04T16:23:51;22.00;99.90
44707;DHT22;30433;45.596;8.408;2023-06-04T16:29:53;21.90;99.90
44707;DHT22;30433;45.596;8.408;2023-06-04T16:35:57;21.70;99.90
44707;DHT22;30433;45.596;8.408;2023-06-04T16:41:59;21.60;99.90
44707;DHT22;30433;45.596;8.408;2023-06-04T16:48:05;21.60;99.90
44707;DHT22;30433;45.596;8.408;2023-06-04T16:54:09;21.60;99.90
44707;DHT22;30433;45.596;8.408;2023-06-04T17:00:11;21.40;99.90
44707;DHT22;30433;45.596;8.408;2023-06-04T17:06:13;20.90;99.90
44707;DHT22;30433;45.596;8.408;2023-06-04T17:12:17;20.50;99.90
44707;DHT22;30433;45.596;8.408;2023-06-04T17:18:20;20.40;99.90
44707;DHT22;30433;45.596;8.408;2023-06-04T17:24:23;20.30;99.90
44707;DHT22;30433;45.596;8.408;2023-06-04T17:30:27;20.30;99.90
44707;DHT22;30433;45.596;8.408;2023-06-04T17:36:29;20.10;99.90
44707;DHT22;30433;45.596;8.408;2023-06-04T17:42:31;20.10;99.90
44707;DHT22;30433;45.596;8.408;2023-06-04T17:48:35;20.10;99.90
44707;DHT22;30433;45.596;8.408;2023-06-04T17:54:37;19.90;99.90
44707;DHT22;30433;45.596;8.408;2023-06-04T18:00:39;19.80;99.90
44707;DHT22;30433;45.596;8.408;2023-06-04T18:06:43;19.70;99.90
44707;DHT22;30433;45.596;8.408;2023-06-04T18:12:45;19.40;99.90
44707;DHT22;30433;45.596;8.408;2023-06-04T18:18:47;19.40;99.90
44707;DHT22;30433;45.596;8.408;2023-06-04T18:24:51;19.50;99.90
44707;DHT22;30433;45.596;8.408;2023-06-04T18:30:53;19.40;99.90
44707;DHT22;30433;45.596;8.408;2023-06-04T18:36:56;19.30;99.90
44707;DHT22;30433;45.596;8.408;2023-06-04T18:42:59;19.20;99.90
44707;DHT22;30433;45.596;8.408;2023-06-04T18:49:02;19.00;99.90
44707;DHT22;30433;45.596;8.408;2023-06-04T18:55:07;19.00;99.90
44707;DHT22;30433;45.596;8.408;2023-06-04T19:01:11;19.10;99.90
44707;DHT22;30433;45.596;8.408;2023-06-04T19:07:13;18.70;99.90
44707;DHT22;30433;45.596;8.408;2023-06-04T19:13:15;18.80;99.90
44707;DHT22;30433;45.596;8.408;2023-06-04T19:19:20;18.80;99.90
44707;DHT22;30433;45.596;8.408;2023-06-04T19:25:22;18.70;99.90
44707;DHT22;30433;45.596;8.408;2023-06-04T19:31:25;18.50;99.90
44707;DHT22;30433;45.596;8.408;2023-06-04T19:37:29;18.60;99.90
44707;DHT22;30433;45.596;8.408;2023-06-04T19:43:34;18.40;99.90
44707;DHT22;30433;45.596;8.408;2023-06-04T19:49:38;18.50;99.90
44707;DHT22;30433;45.596;8.408;2023-06-04T19:55:41;18.30;99.90
44707;DHT22;30433;45.596;8.408;2023-06-04T20:01:44;18.20;99.90
44707;DHT22;30433;45.596;8.408;2023-06-04T20:07:46;18.30;99.90
44707;DHT22;30433;45.596;8.408;2023-06-04T20:13:51;18.00;99.90
44707;DHT22;30433;45.596;8.408;2023-06-04T20:19:53;18.10;99.90
44707;DHT22;30433;45.596;8.408;2023-06-04T20:25:56;18.00;99.90
44707;DHT22;30433;45.596;8.408;2023-06-04T20:32:01;17.90;99.90
44707;DHT22;30433;45.596;8.408;2023-06-04T20:38:03;18.00;99.90
44707;DHT22;30433;45.596;8.408;2023-06-04T20:44:06;18.10;99.90
44707;DHT22;30433;45.596;8.408;2023-06-04T20:50:10;18.20;99.90
44707;DHT22;30433;45.596;8.408;2023-06-04T20:56:12;18.00;99.90
44707;DHT22;30433;45.596;8.408;2023-06-04T21:02:15;17.80;99.90
44707;DHT22;30433;45.596;8.408;2023-06-04T21:08:19;17.60;99.90
44707;DHT22;30433;45.596;8.408;2023-06-04T21:14:21;17.60;99.90
44707;DHT22;30433;45.596;8.408;2023-06-04T21:20:24;17.60;99.90
44707;DHT22;30433;45.596;8.408;2023-06-04T21:26:30;18.00;99.90
44707;DHT22;30433;45.596;8.408;2023-06-04T21:32:32;17.90;99.90
44707;DHT22;30433;45.596;8.408;2023-06-04T21:38:35;17.90;99.90
44707;DHT22;30433;45.596;8.408;2023-06-04T21:44:44;17.70;99.90
44707;DHT22;30433;45.596;8.408;2023-06-04T21:50:47;17.50;99.90
44707;DHT22;30433;45.596;8.408;2023-06-04T21:56:52;17.30;99.90
44707;DHT22;30433;45.596;8.408;2023-06-04T22:02:56;17.20;99.90
44707;DHT22;30433;45.596;8.408;2023-06-04T22:08:58;17.30;99.90
44707;DHT22;30433;45.596;8.408;2023-06-04T22:15:02;16.80;99.90
44707;DHT22;30433;45.596;8.408;2023-06-04T22:21:06;16.70;99.90
44707;DHT22;30433;45.596;8.408;2023-06-04T22:27:08;16.50;99.90
44707;DHT22;30433;45.596;8.408;2023-06-04T22:33:12;16.40;99.90
44707;DHT22;30433;45.596;8.408;2023-06-04T22:39:16;16.40;99.90
44707;DHT22;30433;45.596;8.408;2023-06-04T22:45:18;16.30;99.90
44707;DHT22;30433;45.596;8.408;2023-06-04T22:51:20;16.30;99.90
44707;DHT22;30433;45.596;8.408;2023-06-04T22:57:25;16.30;99.90
44707;DHT22;30433;45.596;8.408;2023-06-04T23:03:27;16.30;99.90
44707;DHT22;30433;45.596;8.408;2023-06-04T23:09:31;16.30;99.90
44707;DHT22;30433;45.596;8.408;2023-06-04T23:15:34;16.50;99.90
44707;DHT22;30433;45.596;8.408;2023-06-04T23:21:37;16.50;99.90
44707;DHT22;30433;45.596;8.408;2023-06-04T23:27:39;16.60;99.90
44707;DHT22;30433;45.596;8.408;2023-06-04T23:33:42;16.50;99.90
44707;DHT22;30433;45.596;8.408;2023-06-04T23:39:45;16.60;99.90
44707;DHT22;30433;45.596;8.408;2023-06-04T23:45:47;16.50;99.90
44707;DHT22;30433;45.596;8.408;2023-06-04T23:51:51;16.60;99.90
44707;DHT22;30433;45.596;8.408;2023-06-04T23:57:53;16.50;99.90
